Time;durP1;ratioP1;P1;durP2;ratioP2;P2;SDS_P1;SDS_P2;PMS_P1;PMS_P2;Temp;Humidity;BMP_temperature;BMP_pressure;BME280_temperature;BME280_humidity;BME280_pressure;Samples;Min_cycle;Max_cycle;Signal;HPM_P1;HPM_P2
2022/01/16 00:00:55;;;;;;;4.50;2.20;;;;;;;1.59;100.00;100539.17;1685984;84;21003;-73
2022/01/16 00:06:01;;;;;;;5.58;1.70;;;;;;;1.60;100.00;100562.41;1689227;84;21095;-72
2022/01/16 00:08:28;;;;;;;4.17;2.02;;;;;;;1.59;100.00;100567.91;1688067;85;21023;-74
2022/01/16 00:10:59;;;;;;;3.15;1.92;;;;;;;1.65;100.00;100569.58;1686023;85;21043;-73
2022/01/16 00:13:26;;;;;;;3.70;1.90;;;;;;;1.70;100.00;100568.27;1685280;84;21582;-75
2022/01/16 00:15:53;;;;;;;4.97;1.82;;;;;;;1.74;100.00;100567.39;1666793;84;21055;-74
2022/01/16 00:18:22;;;;;;;5.00;2.00;;;;;;;1.77;100.00;100568.22;1674624;84;21564;-73
2022/01/16 00:20:49;;;;;;;3.17;1.82;;;;;;;1.85;100.00;100564.37;1675221;85;21574;-73
2022/01/16 00:23:25;;;;;;;3.25;1.85;;;;;;;1.91;100.00;100573.64;1639457;86;21650;-73
2022/01/16 00:25:55;;;;;;;6.67;1.92;;;;;;;1.87;100.00;100577.05;1628280;86;21090;-74
2022/01/16 00:28:24;;;;;;;3.20;1.70;;;;;;;1.93;100.00;100593.08;1643595;85;21103;-75
2022/01/16 00:30:52;;;;;;;5.05;1.98;;;;;;;1.93;100.00;100596.05;1644524;85;21138;-75
2022/01/16 00:33:19;;;;;;;6.25;1.80;;;;;;;1.99;100.00;100589.66;1646638;85;21107;-72
2022/01/16 00:35:46;;;;;;;2.98;1.60;;;;;;;1.98;100.00;100585.41;1636374;86;22151;-72
2022/01/16 00:38:13;;;;;;;2.77;1.65;;;;;;;2.03;100.00;100590.05;1649321;85;21095;-73
2022/01/16 00:40:41;;;;;;;2.30;1.40;;;;;;;2.09;100.00;100589.13;1642924;86;21035;-72
2022/01/16 00:43:08;;;;;;;3.08;1.80;;;;;;;2.04;100.00;100587.91;1663043;85;21059;-72
2022/01/16 00:45:36;;;;;;;3.25;1.75;;;;;;;2.11;100.00;100602.66;1672295;85;21513;-79
2022/01/16 00:48:05;;;;;;;3.75;1.72;;;;;;;2.13;100.00;100590.39;1668989;85;21089;-73
2022/01/16 00:50:34;;;;;;;4.42;1.80;;;;;;;2.13;100.00;100590.39;1671583;84;21033;-73
2022/01/16 00:53:04;;;;;;;4.22;1.98;;;;;;;2.13;100.00;100573.88;1665513;86;21583;-73
2022/01/16 00:55:32;;;;;;;4.10;1.72;;;;;;;2.12;100.00;100570.91;1663485;86;21115;-77
2022/01/16 00:58:00;;;;;;;3.45;1.67;;;;;;;2.12;100.00;100570.91;1663478;86;21055;-76
2022/01/16 01:00:27;;;;;;;3.45;1.85;;;;;;;2.11;100.00;100574.33;1663756;86;21575;-73
2022/01/16 01:02:54;;;;;;;2.80;1.92;;;;;;;2.07;100.00;100565.45;1662532;86;21083;-72
2022/01/16 01:05:21;;;;;;;4.45;2.00;;;;;;;2.11;100.00;100575.59;1662915;86;21059;-73
2022/01/16 01:07:48;;;;;;;4.12;1.92;;;;;;;2.14;100.00;100582.34;1662828;86;21627;-72
2022/01/16 01:10:16;;;;;;;3.60;2.00;;;;;;;2.14;100.00;100590.79;1663020;86;21016;-73
2022/01/16 01:12:56;;;;;;;2.08;1.67;;;;;;;2.09;100.00;100601.42;1662706;86;22201;-74
2022/01/16 01:15:29;;;;;;;3.52;1.77;;;;;;;2.10;100.00;100603.53;1662358;86;21008;-72
2022/01/16 01:17:56;;;;;;;2.87;1.70;;;;;;;2.13;100.00;100614.52;1662791;86;21083;-72
2022/01/16 01:20:25;;;;;;;3.15;1.80;;;;;;;2.12;100.00;100634.84;1662831;86;21040;-74
2022/01/16 01:22:53;;;;;;;5.30;1.82;;;;;;;2.13;100.00;100667.84;1662804;86;21088;-72
2022/01/16 01:25:22;;;;;;;2.42;1.62;;;;;;;2.17;100.00;100677.53;1662951;86;21508;-73
2022/01/16 01:27:50;;;;;;;3.98;1.95;;;;;;;2.16;100.00;100712.69;1663648;85;21013;-72
2022/01/16 01:30:23;;;;;;;4.75;2.15;;;;;;;2.22;100.00;100757.53;1663696;86;21020;-73
2022/01/16 01:32:51;;;;;;;4.12;1.80;;;;;;;2.22;100.00;100757.53;1663666;86;21052;-72
2022/01/16 01:35:20;;;;;;;3.77;1.90;;;;;;;2.23;100.00;100740.14;1655746;85;21056;-73
2022/01/16 01:37:48;;;;;;;3.47;2.02;;;;;;;2.18;100.00;100606.41;1667564;85;21084;-73
2022/01/16 01:40:25;;;;;;;5.03;1.90;;;;;;;2.16;100.00;100538.28;1663645;86;21016;-73
2022/01/16 01:51:36;;;;;;;3.92;1.80;;;;;;;2.07;100.00;100548.55;1663865;86;21622;-74
2022/01/16 01:54:06;;;;;;;3.05;1.70;;;;;;;2.07;100.00;100604.81;1663617;86;21040;-72
2022/01/16 01:56:33;;;;;;;3.90;1.95;;;;;;;2.05;100.00;100630.23;1663751;86;21115;-72
2022/01/16 01:59:01;;;;;;;4.92;2.10;;;;;;;2.06;100.00;100620.48;1663671;86;21004;-73
2022/01/16 02:01:31;;;;;;;4.33;1.77;;;;;;;2.03;100.00;100563.79;1663658;86;21009;-73
2022/01/16 02:03:59;;;;;;;3.75;2.08;;;;;;;2.04;100.00;100597.23;1663651;86;21524;-72
2022/01/16 02:06:29;;;;;;;4.35;2.25;;;;;;;2.06;100.00;100621.75;1663375;85;21053;-72
2022/01/16 02:09:01;;;;;;;2.10;1.50;;;;;;;2.05;100.00;100614.13;1663618;86;21098;-74
2022/01/16 02:11:31;;;;;;;4.83;1.90;;;;;;;1.94;100.00;100598.98;1663647;86;21064;-73
2022/01/16 02:28:29;;;;;;;3.25;1.70;;;;;;;2.09;100.00;100626.82;1663771;86;21029;-71
2022/01/16 02:31:02;;;;;;;5.10;1.98;;;;;;;2.13;100.00;100630.16;1676323;85;21101;-72
2022/01/16 02:34:30;;;;;;;3.17;1.70;;;;;;;2.13;100.00;100655.55;1661826;86;21016;-72
2022/01/16 02:35:50;;;;;;;2.98;1.95;;;;;;;2.13;100.00;100653.87;1663100;85;21059;-71
2022/01/16 02:38:17;;;;;;;2.77;1.70;;;;;;;2.16;100.00;100665.27;1663452;85;21123;-73
2022/01/16 02:40:56;;;;;;;2.60;1.50;;;;;;;2.12;100.00;100675.03;1663477;86;21076;-73
2022/01/16 02:43:29;;;;;;;2.92;1.80;;;;;;;2.10;100.00;100666.58;1663522;86;21127;-73
2022/01/16 02:46:08;;;;;;;2.62;1.70;;;;;;;2.11;100.00;100673.36;1662883;86;21523;-72
2022/01/16 02:48:19;;;;;;;2.95;1.80;;;;;;;2.14;100.00;100661.06;1667951;85;21076;-73
2022/01/16 02:50:46;;;;;;;2.55;1.67;;;;;;;2.08;100.00;100655.59;1663573;86;21619;-74
2022/01/16 02:53:13;;;;;;;3.45;1.75;;;;;;;2.13;100.00;100674.19;1663630;86;21513;-72
2022/01/16 02:55:43;;;;;;;3.27;1.80;;;;;;;2.13;100.00;100674.19;1663324;86;21051;-71
2022/01/16 02:58:10;;;;;;;4.45;2.00;;;;;;;2.13;100.00;100672.92;1663742;86;21094;-72
2022/01/16 03:00:37;;;;;;;3.20;1.70;;;;;;;2.11;100.00;100682.65;1663561;86;21037;-72
2022/01/16 03:03:04;;;;;;;2.87;1.75;;;;;;;2.13;100.00;100693.64;1663741;86;21017;-72
2022/01/16 03:05:33;;;;;;;2.95;1.47;;;;;;;2.12;100.00;100688.99;1663455;86;21083;-71
2022/01/16 03:07:59;;;;;;;3.20;1.80;;;;;;;2.16;100.00;100693.63;1663791;86;21027;-74
2022/01/16 03:12:54;;;;;;;3.90;1.75;;;;;;;2.11;100.00;100701.30;1663616;86;21032;-73
2022/01/16 03:15:22;;;;;;;3.35;1.60;;;;;;;2.08;100.00;100717.80;1663341;86;21033;-72
2022/01/16 03:21:53;;;;;;;3.10;1.95;;;;;;;2.08;100.00;100705.11;1663634;86;21052;-70
2022/01/16 03:23:09;;;;;;;2.98;1.60;;;;;;;2.12;100.00;100717.36;1663559;86;21056;-72
2022/01/16 03:25:36;;;;;;;3.40;1.77;;;;;;;2.10;100.00;100727.52;1663015;86;21147;-71
2022/01/16 03:28:05;;;;;;;2.80;1.62;;;;;;;2.14;100.00;100729.63;1663574;86;21544;-73
2022/01/16 03:30:32;;;;;;;2.92;1.57;;;;;;;2.15;100.00;100730.89;1663547;86;21091;-71
2022/01/16 03:33:00;;;;;;;3.77;1.77;;;;;;;2.17;100.00;100740.62;1663781;86;21052;-72
2022/01/16 03:35:27;;;;;;;2.45;1.70;;;;;;;2.20;100.00;100753.72;1663552;86;21053;-72
2022/01/16 03:37:53;;;;;;;2.12;1.52;;;;;;;2.20;100.00;100753.72;1656190;85;21022;-75
2022/01/16 03:40:21;;;;;;;3.08;1.60;;;;;;;2.16;100.00;100740.62;1669215;85;21036;-72
2022/01/16 03:42:49;;;;;;;2.92;1.62;;;;;;;2.25;100.00;100742.25;1663998;86;21572;-72
2022/01/16 03:45:16;;;;;;;3.95;2.05;;;;;;;2.25;100.00;100749.47;1663844;86;21036;-71
2022/01/16 03:47:46;;;;;;;6.45;2.62;;;;;;;2.26;100.00;100740.98;1663687;86;21060;-71
2022/01/16 03:50:12;;;;;;;6.42;2.50;;;;;;;2.24;100.00;100750.74;1663758;86;21488;-71
2022/01/16 03:52:40;;;;;;;8.30;2.00;;;;;;;2.28;100.00;100746.05;1663736;86;21080;-72
2022/01/16 03:55:08;;;;;;;4.62;1.90;;;;;;;2.31;100.00;100747.30;1663824;86;21036;-71
2022/01/16 03:57:36;;;;;;;3.22;1.30;;;;;;;2.31;100.00;100747.30;1663877;86;21583;-71
2022/01/16 04:00:06;;;;;;;2.15;1.30;;;;;;;2.29;100.00;100753.67;1663689;86;21087;-71
2022/01/16 04:02:33;;;;;;;2.75;1.47;;;;;;;2.30;100.00;100751.53;1663797;86;21078;-71
2022/01/16 04:05:00;;;;;;;2.87;1.42;;;;;;;2.27;100.00;100741.41;1663771;86;21512;-73
2022/01/16 04:07:32;;;;;;;2.40;1.30;;;;;;;2.24;100.00;100756.66;1663440;86;21091;-71
2022/01/16 04:09:55;;;;;;;2.92;1.65;;;;;;;2.23;100.00;100736.34;1663283;85;21477;-70
2022/01/16 04:12:24;;;;;;;3.70;1.98;;;;;;;2.22;100.00;100744.83;1663488;86;21048;-71
2022/01/16 04:17:22;;;;;;;3.20;1.50;;;;;;;2.20;100.00;100752.02;1663671;86;21039;-70
2022/01/16 04:19:50;;;;;;;3.02;1.70;;;;;;;2.20;100.00;100754.98;1663786;86;21000;-70
2022/01/16 04:22:18;;;;;;;2.72;1.50;;;;;;;2.22;100.00;100757.53;1663557;86;21088;-71
2022/01/16 04:24:46;;;;;;;2.20;1.30;;;;;;;2.17;100.00;100763.47;1663790;86;21018;-71
2022/01/16 04:27:14;;;;;;;2.42;1.40;;;;;;;2.18;100.00;100758.80;1663684;86;21117;-71
2022/01/16 04:29:45;;;;;;;3.25;1.60;;;;;;;2.19;100.00;100763.47;1663553;86;21575;-71
2022/01/16 04:32:12;;;;;;;4.22;2.40;;;;;;;2.19;100.00;100760.50;1663485;86;21032;-71
2022/01/16 04:34:40;;;;;;;2.20;1.50;;;;;;;2.20;100.00;100762.61;1649506;85;21010;-72
2022/01/16 04:37:08;;;;;;;3.50;1.37;;;;;;;2.14;100.00;100772.80;1672216;85;21579;-70
2022/01/16 04:39:36;;;;;;;2.75;1.72;;;;;;;2.18;100.00;100771.50;1663492;86;21084;-71
2022/01/16 04:44:52;;;;;;;2.33;1.40;;;;;;;2.18;100.00;100782.92;1663805;86;21008;-71
2022/01/16 04:47:19;;;;;;;3.20;1.30;;;;;;;2.17;100.00;100788.00;1663611;86;21617;-70
2022/01/16 04:49:47;;;;;;;2.33;1.30;;;;;;;2.18;100.00;100789.27;1663690;86;21084;-70
2022/01/16 04:52:15;;;;;;;2.12;1.40;;;;;;;2.15;100.00;100785.50;1663559;86;21543;-70
2022/01/16 04:54:42;;;;;;;3.65;1.55;;;;;;;2.16;100.00;100790.98;1663849;86;21563;-70
2022/01/16 04:57:11;;;;;;;2.05;1.40;;;;;;;2.19;100.00;100788.88;1663795;86;21020;-70
2022/01/16 04:59:37;;;;;;;2.05;1.27;;;;;;;2.20;100.00;100800.70;1663749;86;21088;-70
2022/01/16 05:02:05;;;;;;;2.58;1.20;;;;;;;2.22;100.00;100803.24;1663393;86;21100;-70
2022/01/16 05:04:32;;;;;;;3.27;1.52;;;;;;;2.22;100.00;100813.41;1663535;86;21048;-70
2022/01/16 05:06:59;;;;;;;2.40;1.32;;;;;;;2.18;100.00;100807.48;1663525;86;21020;-70
2022/01/16 05:09:26;;;;;;;4.67;2.02;;;;;;;2.17;100.00;100811.73;1663557;86;21025;-70
2022/01/16 05:11:56;;;;;;;4.92;2.47;;;;;;;2.17;100.00;100820.62;1663737;86;21095;-70
2022/01/16 05:17:06;;;;;;;1.60;1.30;;;;;;;2.16;100.00;100830.34;1663864;86;21064;-70
2022/01/16 05:19:33;;;;;;;2.70;1.47;;;;;;;2.18;100.00;100836.26;1663419;86;21056;-70
2022/01/16 05:22:00;;;;;;;2.87;1.52;;;;;;;2.19;100.00;100847.29;1663875;85;21532;-71
2022/01/16 05:24:32;;;;;;;2.17;1.40;;;;;;;2.18;100.00;100848.13;1663501;86;21052;-69
2022/01/16 05:26:56;;;;;;;3.17;1.50;;;;;;;2.18;100.00;100848.13;1663526;86;21528;-70
2022/01/16 05:29:22;;;;;;;6.10;2.22;;;;;;;2.20;100.00;100858.69;1663777;86;21512;-70
2022/01/16 05:31:49;;;;;;;4.67;2.22;;;;;;;2.20;100.00;100861.23;1663623;86;21099;-70
2022/01/16 05:34:18;;;;;;;2.83;1.37;;;;;;;2.22;100.00;100860.39;1663360;86;21574;-70
2022/01/16 05:36:46;;;;;;;3.40;1.75;;;;;;;2.18;100.00;100869.71;1663586;85;21512;-69
2022/01/16 05:39:13;;;;;;;4.65;2.40;;;;;;;2.22;100.00;100873.93;1663615;86;21548;-72
2022/01/16 05:41:41;;;;;;;3.33;1.95;;;;;;;2.19;100.00;100868.88;1659319;85;21047;-70
2022/01/16 05:44:08;;;;;;;3.35;1.62;;;;;;;2.20;100.00;100863.77;1679600;85;21030;-70
2022/01/16 05:46:35;;;;;;;3.00;1.70;;;;;;;2.20;100.00;100862.50;1672011;85;21606;-70
2022/01/16 05:49:03;;;;;;;4.85;1.87;;;;;;;2.20;100.00;100862.50;1663562;86;21536;-70
2022/01/16 05:51:29;;;;;;;3.58;1.82;;;;;;;2.20;100.00;100869.28;1663600;86;21024;-71
2022/01/16 05:53:58;;;;;;;6.72;3.00;;;;;;;2.20;100.00;100877.73;1663443;85;21091;-72
2022/01/16 05:56:25;;;;;;;3.72;2.02;;;;;;;2.26;100.00;100878.58;1663357;86;21096;-70
2022/01/16 05:58:52;;;;;;;4.85;2.60;;;;;;;2.23;100.00;100881.11;1663369;86;21071;-71
2022/01/16 06:01:19;;;;;;;6.62;3.20;;;;;;;2.31;100.00;100875.58;1663724;86;20993;-70
2022/01/16 06:03:45;;;;;;;6.67;3.05;;;;;;;2.32;100.00;100878.12;1663655;85;21036;-70
2022/01/16 06:06:12;;;;;;;8.18;3.50;;;;;;;2.28;100.00;100887.87;1663866;86;21047;-70
2022/01/16 06:08:39;;;;;;;5.83;3.10;;;;;;;2.31;100.00;100892.09;1647847;84;21527;-70
2022/01/16 06:11:06;;;;;;;9.13;3.05;;;;;;;2.31;100.00;100892.09;1669196;85;21025;-70
2022/01/16 06:13:34;;;;;;;9.48;3.50;;;;;;;2.34;100.00;100888.28;1663498;86;21071;-71
2022/01/16 06:16:02;;;;;;;7.12;3.37;;;;;;;2.34;100.00;100888.28;1663694;86;21033;-69
2022/01/16 06:18:29;;;;;;;8.73;3.95;;;;;;;2.39;100.00;100895.44;1663570;86;21536;-70
2022/01/16 06:20:56;;;;;;;10.50;4.25;;;;;;;2.42;100.00;100890.36;1663677;86;21016;-70
2022/01/16 06:23:23;;;;;;;7.65;4.03;;;;;;;2.43;100.00;100902.20;1663818;86;21095;-70
2022/01/16 06:25:54;;;;;;;6.33;2.60;;;;;;;2.43;100.00;100902.20;1663461;86;21060;-71
2022/01/16 06:28:18;;;;;;;5.03;2.65;;;;;;;2.47;100.00;100892.44;1663458;86;21492;-71
2022/01/16 06:30:44;;;;;;;5.67;2.95;;;;;;;2.46;100.00;100894.58;1663750;86;21047;-70
2022/01/16 06:33:11;;;;;;;6.60;3.58;;;;;;;2.54;100.00;100904.28;1663469;86;21088;-70
2022/01/16 06:35:38;;;;;;;10.63;4.00;;;;;;;2.55;100.00;100904.69;1663650;86;21040;-70
2022/01/16 06:38:05;;;;;;;8.50;4.10;;;;;;;2.65;100.00;100911.84;1663689;85;21127;-70
2022/01/16 06:40:32;;;;;;;8.90;3.92;;;;;;;2.65;100.00;100911.84;1663451;86;21052;-70
2022/01/16 06:42:59;;;;;;;6.40;2.92;;;;;;;2.64;100.00;100913.98;1663682;86;21590;-71
2022/01/16 06:45:28;;;;;;;4.92;2.65;;;;;;;2.64;100.00;100913.98;1655829;85;21505;-70
2022/01/16 06:47:56;;;;;;;6.90;3.10;;;;;;;2.64;100.00;100925.86;1663587;85;21040;-70
2022/01/16 06:50:22;;;;;;;6.95;3.47;;;;;;;2.67;100.00;100924.55;1663567;86;21618;-70
2022/01/16 06:52:49;;;;;;;7.20;2.90;;;;;;;2.67;100.00;100924.55;1663720;86;21027;-70
2022/01/16 06:55:16;;;;;;;5.92;2.67;;;;;;;2.66;100.00;100928.80;1663658;86;21111;-70
2022/01/16 06:57:43;;;;;;;7.08;3.45;;;;;;;2.72;100.00;100945.73;1663632;86;21084;-69
2022/01/16 07:00:10;;;;;;;7.97;3.70;;;;;;;2.72;100.00;100945.73;1663720;86;21020;-70
2022/01/16 07:02:39;;;;;;;7.53;3.20;;;;;;;2.68;100.00;100947.86;1663656;86;21088;-70
2022/01/16 07:05:07;;;;;;;6.40;2.67;;;;;;;2.64;100.00;100934.31;1663674;86;21083;-71
2022/01/16 07:07:34;;;;;;;4.70;2.25;;;;;;;2.64;100.00;100934.31;1663638;86;21570;-71
2022/01/16 07:10:02;;;;;;;5.08;2.12;;;;;;;2.71;100.00;100936.39;1663530;86;21540;-70
2022/01/16 07:12:29;;;;;;;5.17;2.35;;;;;;;2.69;100.00;100947.00;1663374;86;21083;-70
2022/01/16 07:14:58;;;;;;;3.22;1.90;;;;;;;2.71;100.00;100952.92;1663430;85;21091;-73
2022/01/16 07:17:26;;;;;;;4.37;2.00;;;;;;;2.73;100.00;100952.48;1663133;86;21508;-70
2022/01/16 07:19:53;;;;;;;2.92;1.80;;;;;;;2.73;100.00;100952.48;1663658;86;21036;-71
2022/01/16 07:22:21;;;;;;;4.40;2.62;;;;;;;2.78;100.00;100955.43;1663644;85;21042;-69
2022/01/16 07:24:50;;;;;;;6.22;3.10;;;;;;;2.83;100.00;100963.02;1663693;86;21000;-69
2022/01/16 07:27:17;;;;;;;4.03;2.05;;;;;;;2.83;100.00;100983.37;1663627;86;21032;-72
2022/01/16 07:29:44;;;;;;;4.12;1.80;;;;;;;2.78;100.00;100974.94;1663659;86;21072;-69
2022/01/16 07:32:11;;;;;;;4.85;1.75;;;;;;;2.83;100.00;100973.63;1644011;86;21566;-70
2022/01/16 07:34:38;;;;;;;2.92;1.77;;;;;;;2.88;100.00;100975.70;1670816;86;21531;-69
2022/01/16 07:37:05;;;;;;;4.40;2.17;;;;;;;2.94;100.00;100983.30;1670453;86;21071;-70
2022/01/16 07:39:31;;;;;;;3.65;1.90;;;;;;;2.94;100.00;100987.13;1670552;86;21580;-70
2022/01/16 07:41:59;;;;;;;5.90;2.58;;;;;;;2.91;100.00;100994.34;1670660;85;21082;-72
2022/01/16 07:44:28;;;;;;;4.42;2.62;;;;;;;2.94;100.00;100989.27;1670413;86;21050;-70
2022/01/16 07:46:55;;;;;;;3.58;2.15;;;;;;;2.94;100.00;100998.56;1670652;86;21511;-70
2022/01/16 07:49:22;;;;;;;3.30;2.00;;;;;;;2.97;100.00;101001.11;1670731;85;21045;-70
2022/01/16 07:51:50;;;;;;;3.80;1.92;;;;;;;3.05;100.00;100998.09;1670372;86;21039;-69
2022/01/16 07:54:19;;;;;;;3.75;1.98;;;;;;;3.09;100.00;100992.58;1670581;85;21081;-69
2022/01/16 07:56:47;;;;;;;3.83;1.90;;;;;;;3.15;100.00;100993.37;1670465;85;21121;-69
2022/01/16 07:59:14;;;;;;;3.02;2.17;;;;;;;3.11;100.00;101001.05;1670447;85;21083;-69
2022/01/16 08:01:40;;;;;;;4.95;2.30;;;;;;;3.12;100.00;100988.73;1640028;86;21037;-69
2022/01/16 08:04:09;;;;;;;3.40;2.00;;;;;;;3.19;100.00;100993.78;1640008;86;21047;-70
2022/01/16 08:06:36;;;;;;;4.53;2.40;;;;;;;3.14;100.00;101003.55;1670392;86;21047;-70
2022/01/16 08:09:03;;;;;;;4.12;2.62;;;;;;;3.13;100.00;101001.45;1670534;86;21027;-71
2022/01/16 08:11:30;;;;;;;8.63;2.37;;;;;;;3.11;100.00;101008.23;1670958;86;21067;-71
2022/01/16 08:13:57;;;;;;;5.17;2.10;;;;;;;3.11;100.00;101013.77;1670671;86;21087;-71
2022/01/16 08:16:26;;;;;;;5.20;2.12;;;;;;;3.09;100.00;101032.84;1670636;86;21099;-70
2022/01/16 08:18:53;;;;;;;4.37;2.35;;;;;;;3.09;100.00;101032.84;1670600;86;21007;-69
2022/01/16 08:21:20;;;;;;;6.15;2.70;;;;;;;3.15;100.00;101036.63;1670923;86;21516;-70
2022/01/16 08:23:46;;;;;;;4.25;2.22;;;;;;;3.12;100.00;101039.59;1670594;86;21097;-70
2022/01/16 08:26:13;;;;;;;6.12;2.95;;;;;;;3.14;100.00;101045.53;1670824;85;21564;-70
2022/01/16 08:28:40;;;;;;;5.15;2.42;;;;;;;3.19;100.00;101047.20;1670781;84;21515;-71
2022/01/16 08:31:06;;;;;;;4.45;2.40;;;;;;;3.19;100.00;101050.18;1670574;85;21507;-71
2022/01/16 08:33:35;;;;;;;3.72;2.95;;;;;;;3.21;100.00;101045.49;1670244;86;21067;-72
2022/01/16 08:36:02;;;;;;;6.25;3.30;;;;;;;3.22;100.00;101052.70;1640183;86;21039;-71
2022/01/16 08:38:32;;;;;;;6.92;4.10;;;;;;;3.27;100.00;101044.63;1670417;84;21091;-72
2022/01/16 08:41:02;;;;;;;9.43;4.53;;;;;;;3.27;100.00;101059.05;1670656;86;21046;-71
2022/01/16 08:43:30;;;;;;;6.97;3.33;;;;;;;3.31;100.00;101049.28;1640967;86;21066;-70
2022/01/16 08:45:57;;;;;;;4.97;2.45;;;;;;;3.29;100.00;101050.55;1640260;86;20983;-73
2022/01/16 08:48:24;;;;;;;6.85;3.55;;;;;;;3.27;100.00;101053.97;1670268;86;21086;-71
2022/01/16 08:50:50;;;;;;;9.35;4.80;;;;;;;3.25;100.00;101062.88;1670702;85;20983;-72
2022/01/16 08:53:17;;;;;;;7.78;2.62;;;;;;;3.30;100.00;101057.31;1639975;86;21160;-70
2022/01/16 08:55:44;;;;;;;4.33;2.40;;;;;;;3.31;100.00;101061.56;1670637;86;21520;-71
2022/01/16 08:58:10;;;;;;;3.20;1.82;;;;;;;3.27;100.00;101061.16;1670698;86;21027;-70
2022/01/16 09:00:37;;;;;;;2.98;1.82;;;;;;;3.37;100.00;101056.88;1656669;84;21040;-70
2022/01/16 09:03:06;;;;;;;3.02;1.80;;;;;;;3.32;100.00;101061.97;1654585;86;21583;-70
2022/01/16 09:05:33;;;;;;;3.17;1.85;;;;;;;3.34;100.00;101057.72;1654732;87;21104;-70
2022/01/16 09:08:00;;;;;;;4.00;1.80;;;;;;;3.31;100.00;101053.93;1654783;87;21052;-72
2022/01/16 09:10:26;;;;;;;6.08;2.58;;;;;;;3.36;100.00;101048.81;1654557;87;21484;-72
2022/01/16 09:12:53;;;;;;;4.37;2.33;;;;;;;3.39;100.00;101043.28;1654799;87;21083;-70
2022/01/16 09:15:21;;;;;;;4.78;2.37;;;;;;;3.39;100.00;101036.08;1654630;86;21099;-71
2022/01/16 09:17:48;;;;;;;4.75;2.10;;;;;;;3.56;100.00;101038.52;1654798;87;21588;-70
2022/01/16 09:20:17;;;;;;;5.55;2.37;;;;;;;3.57;100.00;101044.03;1654625;87;21575;-72
2022/01/16 09:22:45;;;;;;;5.95;2.33;;;;;;;3.45;100.00;101041.14;1654908;86;21642;-71
2022/01/16 09:25:14;;;;;;;3.98;2.20;;;;;;;3.55;100.00;101045.75;1650623;86;21079;-71
2022/01/16 09:27:42;;;;;;;3.98;1.98;;;;;;;3.60;100.00;101039.75;1668530;84;21573;-72
2022/01/16 09:30:11;;;;;;;3.75;2.08;;;;;;;3.66;100.00;101042.69;1674876;85;21060;-73
2022/01/16 09:32:38;;;;;;;4.00;2.02;;;;;;;3.63;100.00;101041.45;1640627;86;21060;-71
2022/01/16 09:35:08;;;;;;;4.33;1.90;;;;;;;3.64;100.00;101035.48;1663269;86;21098;-72
2022/01/16 09:37:36;;;;;;;4.95;2.05;;;;;;;3.59;100.00;101045.70;1633752;86;21513;-70
2022/01/16 09:40:06;;;;;;;5.42;2.10;;;;;;;3.58;100.00;101041.45;1662514;85;21055;-71
2022/01/16 09:42:34;;;;;;;5.30;2.25;;;;;;;3.67;100.00;101038.02;1653256;85;21588;-71
2022/01/16 09:45:04;;;;;;;4.37;2.30;;;;;;;3.68;100.00;101036.31;1685330;84;21043;-72
2022/01/16 09:47:31;;;;;;;6.78;2.30;;;;;;;3.69;100.00;101046.49;1687221;84;21039;-71
2022/01/16 09:49:59;;;;;;;5.28;2.58;;;;;;;3.66;100.00;101039.30;1688179;84;21050;-71
2022/01/16 09:52:26;;;;;;;16.30;6.00;;;;;;;3.68;100.00;101039.70;1639706;85;21007;-70
2022/01/16 09:54:55;;;;;;;4.85;2.70;;;;;;;3.72;100.00;101035.44;1661241;83;21118;-72
2022/01/16 09:57:22;;;;;;;5.60;2.58;;;;;;;3.66;100.00;101037.59;1689187;84;21098;-73
2022/01/16 09:59:50;;;;;;;5.25;2.87;;;;;;;3.71;100.00;101037.55;1689228;84;21110;-71
2022/01/16 10:02:16;;;;;;;5.90;2.60;;;;;;;3.66;100.00;101031.23;1692094;84;21081;-71
2022/01/16 10:04:44;;;;;;;7.25;3.00;;;;;;;3.70;100.00;101031.62;1684196;84;21078;-72
2022/01/16 10:07:17;;;;;;;8.30;3.08;;;;;;;3.63;100.00;101044.40;1687904;84;21053;-71
2022/01/16 10:10:06;;;;;;;7.50;3.57;;;;;;;3.47;100.00;101029.64;1713144;81;21004;-71
2022/01/16 10:12:35;;;;;;;7.17;2.80;;;;;;;3.49;100.00;101030.48;1723257;82;21602;-72
2022/01/16 10:15:26;;;;;;;3.92;2.15;;;;;;;3.44;100.00;101030.52;1719030;82;21067;-72
2022/01/16 10:17:57;;;;;;;8.40;2.30;;;;;;;3.37;100.00;101031.42;1696066;83;21051;-70
2022/01/16 10:20:28;;;;;;;4.42;2.60;;;;;;;3.33;100.00;101032.30;1663551;85;21063;-70
2022/01/16 10:23:00;;;;;;;5.37;2.50;;;;;;;3.33;100.00;101034.84;1685318;84;21507;-69
2022/01/16 10:25:44;;;;;;;7.22;2.50;;;;;;;3.37;100.00;101029.72;1686114;83;21536;-69
2022/01/16 10:28:18;;;;;;;3.83;2.25;;;;;;;3.35;100.00;101026.34;1678304;84;21070;-70
2022/01/16 10:30:49;;;;;;;5.00;2.20;;;;;;;3.38;100.00;101034.38;1699062;83;21064;-73
2022/01/16 10:33:20;;;;;;;3.83;2.02;;;;;;;3.43;100.00;101039.03;1691450;82;21678;-71
2022/01/16 10:35:51;;;;;;;4.78;2.10;;;;;;;3.46;100.00;101033.06;1694701;83;21062;-70
2022/01/16 10:38:23;;;;;;;8.60;3.72;;;;;;;3.52;100.00;101025.39;1697774;83;21627;-73
2022/01/16 10:40:52;;;;;;;10.85;4.40;;;;;;;3.63;100.00;101040.58;1701915;83;21500;-69
2022/01/16 10:43:43;;;;;;;14.30;6.87;;;;;;;3.69;100.00;101026.13;1709109;83;21050;-69
2022/01/16 10:46:13;;;;;;;21.48;9.93;;;;;;;3.74;100.00;101028.20;1697492;83;21067;-70
2022/01/16 10:48:41;;;;;;;17.30;7.97;;;;;;;3.78;100.00;101030.30;1700778;83;21535;-71
2022/01/16 10:51:22;;;;;;;14.23;6.80;;;;;;;3.79;100.00;101027.75;1697050;83;21036;-69
2022/01/16 10:53:49;;;;;;;14.53;7.37;;;;;;;3.72;100.00;101037.98;1694591;82;21090;-71
2022/01/16 10:56:15;;;;;;;13.25;6.80;;;;;;;3.71;100.00;101034.59;1680194;83;21089;-73
2022/01/16 10:58:43;;;;;;;15.78;7.60;;;;;;;3.73;100.00;101041.80;1670314;85;21054;-72
2022/01/16 11:01:14;;;;;;;18.42;7.90;;;;;;;3.78;100.00;101034.95;1694608;83;21063;-71
2022/01/16 11:03:47;;;;;;;19.82;8.00;;;;;;;3.75;100.00;101035.39;1645905;85;21049;-73
2022/01/16 11:06:23;;;;;;;11.85;5.25;;;;;;;3.84;100.00;101029.41;1661490;86;21550;-73
2022/01/16 11:08:56;;;;;;;12.25;5.17;;;;;;;3.86;100.00;101025.98;1637402;86;21038;-74
2022/01/16 11:11:25;;;;;;;14.07;6.35;;;;;;;3.85;100.00;101033.63;1648024;86;21055;-72
2022/01/16 11:13:54;;;;;;;14.15;6.05;;;;;;;3.88;100.00;101033.63;1695664;83;21004;-75
2022/01/16 11:16:24;;;;;;;18.60;7.80;;;;;;;3.86;100.00;101043.81;1708742;83;21011;-71
2022/01/16 11:18:51;;;;;;;15.98;8.00;;;;;;;3.73;100.00;101035.43;1716429;83;21047;-72
2022/01/16 11:21:30;;;;;;;23.52;9.50;;;;;;;3.71;100.00;101042.64;1714070;83;21026;-72
2022/01/16 11:24:00;;;;;;;18.70;7.35;;;;;;;3.50;100.00;101028.38;1704334;84;21039;-69
2022/01/16 11:26:21;;;;;;;14.10;6.22;;;;;;;3.49;100.00;101031.35;1713790;83;21080;-72
2022/01/16 11:28:55;;;;;;;13.32;6.53;;;;;;;3.39;100.00;101034.81;1713158;83;21595;-70
2022/01/16 11:31:23;;;;;;;13.93;6.83;;;;;;;3.38;100.00;101027.58;1714071;83;21048;-68
2022/01/16 11:33:51;;;;;;;13.75;6.17;;;;;;;3.43;100.00;101031.80;1711077;82;21622;-71
2022/01/16 11:36:25;;;;;;;11.75;5.08;;;;;;;3.47;100.00;101029.64;1714732;83;21091;-72
2022/01/16 11:38:57;;;;;;;9.63;4.08;;;;;;;3.41;100.00;101036.48;1711356;83;21076;-71
2022/01/16 11:41:37;;;;;;;7.08;3.47;;;;;;;3.36;100.00;101033.11;1714666;83;21122;-71
2022/01/16 11:44:08;;;;;;;6.55;2.75;;;;;;;3.44;100.00;101037.31;1716086;82;22152;-71
2022/01/16 11:46:41;;;;;;;5.55;2.67;;;;;;;3.40;100.00;101033.94;1716881;83;21568;-72
2022/01/16 11:49:17;;;;;;;8.35;3.72;;;;;;;3.41;100.00;101035.21;1713970;83;21071;-70
2022/01/16 11:51:51;;;;;;;17.10;6.78;;;;;;;3.49;100.00;101036.44;1717534;83;21520;-71
2022/01/16 11:54:32;;;;;;;19.40;8.28;;;;;;;3.53;100.00;101034.30;1715916;83;21079;-71
2022/01/16 11:57:05;;;;;;;23.55;10.53;;;;;;;3.65;100.00;101039.73;1697433;83;21527;-72
2022/01/16 11:59:39;;;;;;;33.42;14.80;;;;;;;3.76;100.00;101039.21;1722704;83;21069;-73
2022/01/16 12:02:16;;;;;;;37.73;16.70;;;;;;;3.81;100.00;101040.44;1714422;83;21558;-71
2022/01/16 12:05:00;;;;;;;41.20;17.27;;;;;;;3.86;100.00;101045.09;1714595;83;21570;-72
2022/01/16 12:07:38;;;;;;;15.85;6.12;;;;;;;3.79;100.00;101053.21;1713161;83;21549;-72
2022/01/16 12:10:06;;;;;;;10.23;4.10;;;;;;;3.59;100.00;101062.69;1682603;85;21576;-71